createdAt,value
2023-05-23T00:02:24.410Z,6.20
2023-05-23T00:04:52.658Z,6.60
2023-05-23T00:07:20.641Z,6.53
2023-05-23T00:09:48.720Z,6.53
2023-05-23T00:12:16.918Z,6.87
2023-05-23T00:14:47.990Z,5.70
2023-05-23T00:17:17.524Z,7.17
2023-05-23T00:19:46.914Z,6.00
2023-05-23T00:22:16.612Z,6.60
2023-05-23T00:24:45.404Z,6.40
2023-05-23T00:27:13.492Z,6.40
2023-05-23T00:29:41.611Z,6.67
2023-05-23T00:32:09.600Z,5.93
2023-05-23T00:34:37.828Z,6.20
2023-05-23T00:37:08.076Z,6.60
2023-05-23T00:39:36.118Z,6.37
2023-05-23T00:42:06.478Z,6.20
2023-05-23T00:44:34.540Z,6.47
2023-05-23T00:47:02.768Z,6.77
2023-05-23T00:49:31.972Z,6.07
2023-05-23T00:52:00.803Z,4.70
2023-05-23T00:54:32.053Z,6.33
2023-05-23T00:57:00.629Z,5.47
2023-05-23T00:59:28.653Z,6.00
2023-05-23T01:01:58.401Z,5.87
2023-05-23T01:04:28.260Z,5.27
2023-05-23T01:06:56.865Z,5.50
2023-05-23T01:09:27.127Z,6.00
2023-05-23T01:12:08.549Z,6.10
2023-05-23T01:14:43.914Z,5.90
2023-05-23T01:17:30.424Z,4.93
2023-05-23T01:20:08.083Z,6.03
2023-05-23T01:23:00.878Z,5.80
2023-05-23T01:25:50.176Z,5.80
2023-05-23T01:28:23.062Z,5.60
2023-05-23T01:30:53.974Z,6.40
2023-05-23T01:33:23.755Z,5.77
2023-05-23T01:35:52.738Z,6.20
2023-05-23T01:38:20.786Z,5.63
2023-05-23T01:40:48.818Z,5.90
2023-05-23T01:43:18.615Z,5.30
2023-05-23T01:45:46.839Z,5.47
2023-05-23T01:48:16.806Z,5.07
2023-05-23T01:50:46.242Z,4.90
2023-05-23T01:53:16.485Z,5.70
2023-05-23T01:55:44.888Z,5.70
2023-05-23T01:58:13.188Z,6.03
2023-05-23T02:00:42.626Z,5.70
2023-05-23T02:03:11.685Z,5.90
2023-05-23T02:05:40.045Z,5.13
2023-05-23T02:08:08.317Z,5.33
2023-05-23T02:10:36.353Z,4.77
2023-05-23T02:13:04.369Z,5.10
2023-05-23T02:15:32.414Z,5.50
2023-05-23T02:18:03.197Z,4.90
2023-05-23T02:20:31.347Z,5.00
2023-05-23T02:22:59.371Z,5.67
2023-05-23T02:25:27.362Z,5.57
2023-05-23T02:27:55.418Z,4.90
2023-05-23T02:30:23.447Z,6.40
2023-05-23T02:32:51.598Z,5.10
2023-05-23T02:35:21.615Z,5.17
2023-05-23T02:37:49.622Z,5.27
2023-05-23T02:40:17.832Z,4.83
2023-05-23T02:42:45.984Z,4.87
2023-05-23T02:45:14.014Z,4.37
2023-05-23T02:47:42.034Z,5.10
2023-05-23T02:50:11.407Z,4.73
2023-05-23T02:52:42.287Z,5.57
2023-05-23T02:55:11.016Z,4.80
2023-05-23T02:57:39.085Z,5.30
2023-05-23T03:00:10.268Z,5.63
2023-05-23T03:02:38.336Z,4.47
2023-05-23T03:05:07.968Z,5.47
2023-05-23T03:07:36.595Z,4.47
2023-05-23T03:10:07.594Z,5.73
2023-05-23T03:12:35.589Z,4.83
2023-05-23T03:15:03.883Z,4.67
2023-05-23T03:17:32.002Z,4.67
2023-05-23T03:20:00.013Z,4.63
2023-05-23T03:22:28.149Z,4.90
2023-05-23T03:24:56.174Z,4.50
2023-05-23T03:27:25.479Z,5.67
2023-05-23T03:29:53.478Z,5.50
2023-05-23T03:32:21.443Z,4.57
2023-05-23T03:34:49.409Z,5.40
2023-05-23T03:37:17.485Z,4.30
2023-05-23T03:39:45.509Z,5.90
2023-05-23T03:42:13.482Z,4.87
2023-05-23T03:44:43.005Z,4.47
2023-05-23T03:47:11.271Z,4.27
2023-05-23T03:49:39.226Z,4.60
2023-05-23T03:52:07.600Z,5.17
2023-05-23T03:54:35.650Z,4.70
2023-05-23T03:57:03.801Z,5.23
2023-05-23T03:59:32.256Z,4.53
2023-05-23T04:02:01.675Z,4.53
2023-05-23T04:04:30.941Z,4.67
2023-05-23T04:06:59.668Z,4.80
2023-05-23T04:09:27.672Z,4.23
2023-05-23T04:11:55.880Z,5.13
2023-05-23T04:14:25.198Z,5.00
2023-05-23T04:16:53.452Z,4.13
2023-05-23T04:19:22.815Z,4.23
2023-05-23T04:21:50.797Z,4.50
2023-05-23T04:24:18.843Z,4.60
2023-05-23T04:26:46.848Z,4.40
2023-05-23T04:29:15.106Z,4.17
2023-05-23T04:31:45.730Z,5.97
2023-05-23T04:34:14.250Z,4.50
2023-05-23T04:36:44.636Z,4.30
2023-05-23T04:39:12.753Z,3.83
2023-05-23T04:41:41.113Z,4.57
2023-05-23T04:44:10.093Z,3.77
2023-05-23T04:46:42.204Z,4.10
2023-05-23T04:49:10.804Z,6.90
2023-05-23T04:51:39.061Z,9.37
2023-05-23T04:54:08.632Z,6.70
2023-05-23T04:56:36.786Z,6.93
2023-05-23T04:59:04.910Z,6.80
2023-05-23T05:01:33.060Z,6.40
2023-05-23T05:04:01.416Z,5.50
2023-05-23T05:06:29.530Z,5.07
2023-05-23T05:08:57.543Z,4.70
2023-05-23T05:11:28.498Z,5.27
2023-05-23T05:13:56.578Z,4.70
2023-05-23T05:16:24.639Z,5.17
2023-05-23T05:18:52.796Z,5.53
2023-05-23T05:21:20.874Z,4.50
2023-05-23T05:23:48.883Z,5.00
2023-05-23T05:26:17.053Z,5.00
2023-05-23T05:28:46.455Z,4.93
2023-05-23T05:31:15.495Z,4.80
2023-05-23T05:33:45.780Z,4.40
2023-05-23T05:36:13.971Z,4.50
2023-05-23T05:38:41.962Z,4.33
2023-05-23T05:41:09.987Z,4.63
2023-05-23T05:43:38.035Z,4.40
2023-05-23T05:46:07.467Z,4.80
2023-05-23T05:48:35.498Z,4.70
2023-05-23T05:51:04.035Z,4.50
2023-05-23T05:53:32.002Z,3.67
2023-05-23T05:56:01.147Z,5.40
2023-05-23T05:58:29.222Z,4.70
2023-05-23T06:00:57.447Z,4.87
2023-05-23T06:03:27.360Z,3.90
2023-05-23T06:05:55.485Z,4.43
2023-05-23T06:08:23.867Z,4.70
2023-05-23T06:10:51.897Z,3.60
2023-05-23T06:13:19.889Z,5.40
2023-05-23T06:15:48.011Z,3.47
2023-05-23T06:18:16.481Z,4.07
2023-05-23T06:20:45.818Z,3.83
2023-05-23T06:23:14.079Z,3.70
2023-05-23T06:25:42.088Z,5.10
2023-05-23T06:28:10.205Z,4.90
2023-05-23T06:30:39.030Z,4.10
2023-05-23T06:33:07.464Z,4.60
2023-05-23T06:35:35.503Z,4.47
2023-05-23T06:38:04.932Z,4.70
2023-05-23T06:40:32.955Z,4.40
2023-05-23T06:43:01.263Z,4.23
2023-05-23T06:45:29.410Z,3.90
2023-05-23T06:47:57.565Z,4.00
2023-05-23T06:50:25.571Z,4.07
2023-05-23T06:52:53.610Z,4.37
2023-05-23T06:55:23.626Z,4.63
2023-05-23T06:57:52.280Z,4.60
2023-05-23T07:00:21.155Z,5.07
2023-05-23T07:02:49.482Z,4.67
2023-05-23T07:05:18.073Z,4.20
2023-05-23T07:07:46.168Z,4.07
2023-05-23T07:10:14.356Z,4.30
2023-05-23T07:12:43.745Z,4.50
2023-05-23T07:15:13.569Z,4.87
2023-05-23T07:17:41.774Z,4.20
2023-05-23T07:20:10.945Z,4.60
2023-05-23T07:22:38.949Z,4.33
2023-05-23T07:25:09.408Z,4.87
2023-05-23T07:27:37.454Z,4.83
2023-05-23T07:30:09.725Z,4.53
2023-05-23T07:32:37.909Z,4.47
2023-05-23T07:35:06.948Z,4.77
2023-05-23T07:37:35.011Z,4.20
2023-05-23T07:40:04.549Z,4.40
2023-05-23T07:42:32.625Z,4.23
2023-05-23T07:45:01.042Z,4.63
2023-05-23T07:47:30.643Z,5.00
2023-05-23T07:49:59.005Z,4.10
2023-05-23T07:52:27.040Z,3.73
2023-05-23T07:54:55.048Z,4.30
2023-05-23T07:57:24.382Z,4.47
2023-05-23T07:59:53.204Z,4.50
2023-05-23T08:02:21.893Z,3.83
2023-05-23T08:04:51.299Z,4.73
2023-05-23T08:07:19.734Z,4.83
2023-05-23T08:09:47.819Z,4.63
2023-05-23T08:12:16.339Z,4.30
2023-05-23T08:14:51.401Z,3.97
2023-05-23T08:17:20.704Z,4.10
2023-05-23T08:19:48.941Z,4.63
2023-05-23T08:22:18.384Z,4.03
2023-05-23T08:24:46.491Z,5.20
2023-05-23T08:27:14.532Z,4.00
2023-05-23T08:29:45.848Z,4.10
2023-05-23T08:32:14.083Z,4.37
2023-05-23T08:34:42.264Z,4.30
2023-05-23T08:37:10.495Z,4.00
2023-05-23T08:39:39.856Z,4.20
2023-05-23T08:42:08.726Z,4.13
2023-05-23T08:44:36.784Z,3.63
2023-05-23T08:47:06.526Z,4.00
2023-05-23T08:49:35.228Z,4.40
2023-05-23T08:52:04.613Z,4.50
2023-05-23T08:54:33.862Z,4.10
2023-05-23T08:57:04.450Z,4.20
2023-05-23T08:59:34.620Z,4.83
2023-05-23T09:02:04.811Z,4.00
2023-05-23T09:04:33.254Z,4.00
2023-05-23T09:07:02.233Z,4.13
2023-05-23T09:09:30.916Z,3.97
2023-05-23T09:12:00.860Z,4.20
2023-05-23T09:14:32.124Z,4.30
2023-05-23T09:17:04.790Z,4.57
2023-05-23T09:19:33.410Z,3.70
2023-05-23T09:22:03.855Z,4.53
2023-05-23T09:24:39.554Z,3.70
2023-05-23T09:27:08.296Z,4.63
2023-05-23T09:29:40.661Z,3.97
2023-05-23T09:32:13.733Z,4.50
2023-05-23T09:34:43.201Z,4.50
2023-05-23T09:37:18.166Z,4.20
2023-05-23T09:39:49.275Z,4.33
2023-05-23T09:42:22.004Z,4.57
2023-05-23T09:44:51.897Z,4.20
2023-05-23T09:47:20.153Z,4.00
2023-05-23T09:49:48.912Z,4.90
2023-05-23T09:52:16.935Z,3.90
2023-05-23T09:54:46.550Z,4.40
2023-05-23T09:57:29.669Z,4.20
2023-05-23T10:00:02.288Z,3.60
2023-05-23T10:02:56.448Z,4.33
2023-05-23T10:05:36.421Z,3.80
2023-05-23T10:08:10.652Z,4.23
2023-05-23T10:11:37.586Z,3.77
2023-05-23T10:14:12.469Z,3.80
2023-05-23T10:16:56.879Z,4.17
2023-05-23T10:19:45.626Z,4.30
2023-05-23T10:22:15.814Z,4.00
2023-05-23T10:24:46.541Z,4.10
2023-05-23T10:27:14.886Z,4.00
2023-05-23T10:29:43.218Z,3.87
2023-05-23T10:32:14.899Z,4.20
2023-05-23T10:34:53.366Z,4.20
2023-05-23T10:37:30.200Z,4.43
2023-05-23T10:40:05.961Z,4.00
2023-05-23T10:42:44.520Z,4.50
2023-05-23T10:45:19.643Z,4.33
2023-05-23T10:47:52.325Z,4.70
2023-05-23T10:50:34.072Z,4.23
2023-05-23T10:53:03.669Z,4.10
2023-05-23T10:55:36.668Z,3.40
2023-05-23T10:58:12.578Z,3.53
2023-05-23T11:00:40.795Z,4.10
2023-05-23T11:03:11.613Z,3.30
2023-05-23T11:05:49.111Z,4.27
2023-05-23T11:08:17.823Z,4.13
2023-05-23T11:10:56.268Z,4.00
2023-05-23T11:13:24.927Z,3.80
2023-05-23T11:15:53.545Z,4.07
2023-05-23T11:18:25.859Z,4.03
2023-05-23T11:20:55.173Z,3.70
2023-05-23T11:23:25.637Z,4.03
2023-05-23T11:25:55.422Z,4.00
2023-05-23T11:28:24.079Z,3.60
2023-05-23T11:30:52.448Z,3.80
2023-05-23T11:33:21.043Z,3.67
2023-05-23T11:35:52.208Z,3.83
2023-05-23T11:38:21.199Z,3.33
2023-05-23T11:40:49.816Z,3.77
2023-05-23T11:43:19.762Z,3.57
2023-05-23T11:45:48.230Z,3.53
2023-05-23T11:48:18.116Z,3.57
2023-05-23T11:50:48.713Z,3.90
2023-05-23T11:53:21.521Z,3.80
2023-05-23T11:55:52.921Z,3.87
2023-05-23T11:58:22.036Z,3.87
2023-05-23T12:00:50.055Z,3.60
2023-05-23T12:03:18.257Z,3.70
2023-05-23T12:05:46.803Z,4.00
2023-05-23T12:08:15.449Z,3.60
2023-05-23T12:10:59.796Z,3.80
2023-05-23T12:13:29.910Z,4.20
2023-05-23T12:16:00.362Z,3.40
2023-05-23T12:18:30.785Z,4.07
2023-05-23T12:21:03.120Z,4.03
2023-05-23T12:23:34.555Z,3.37
2023-05-23T12:26:07.857Z,4.43
2023-05-23T12:28:37.986Z,4.00
2023-05-23T12:31:13.904Z,4.13
2023-05-23T12:33:43.895Z,3.23
2023-05-23T12:36:12.727Z,3.30
2023-05-23T12:38:45.506Z,3.60
2023-05-23T12:41:19.590Z,4.07
2023-05-23T12:43:55.771Z,3.50
2023-05-23T12:46:26.069Z,3.73
2023-05-23T12:48:55.269Z,3.70
2023-05-23T12:51:23.310Z,3.83
2023-05-23T12:53:52.109Z,3.53
2023-05-23T12:56:27.071Z,4.20
2023-05-23T12:58:55.103Z,3.60
2023-05-23T13:01:23.274Z,3.63
2023-05-23T13:03:51.408Z,4.20
2023-05-23T13:06:19.514Z,3.90
2023-05-23T13:08:48.646Z,4.43
2023-05-23T13:11:16.794Z,3.90
2023-05-23T13:13:47.925Z,4.03
2023-05-23T13:16:16.406Z,3.50
2023-05-23T13:18:44.708Z,4.57
2023-05-23T13:21:12.833Z,3.20
2023-05-23T13:23:40.942Z,4.63
2023-05-23T13:26:09.285Z,3.50
2023-05-23T13:28:37.357Z,4.33
2023-05-23T13:31:07.148Z,4.23
2023-05-23T13:33:35.458Z,3.50
2023-05-23T13:36:09.718Z,4.13
2023-05-23T13:38:38.933Z,4.10
2023-05-23T13:41:07.344Z,4.20
2023-05-23T13:43:35.426Z,3.97
2023-05-23T13:46:03.555Z,4.00
2023-05-23T13:48:32.948Z,4.00
2023-05-23T13:51:02.520Z,3.97
2023-05-23T13:53:30.633Z,3.77
2023-05-23T13:55:58.791Z,3.70
2023-05-23T13:58:27.333Z,4.70
2023-05-23T14:00:55.350Z,3.70
2023-05-23T14:03:24.473Z,3.60
2023-05-23T14:05:54.111Z,3.60
2023-05-23T14:08:22.288Z,3.70
2023-05-23T14:10:50.435Z,4.03
2023-05-23T14:13:18.730Z,3.93
2023-05-23T14:15:46.775Z,4.00
2023-05-23T14:18:14.948Z,4.27
2023-05-23T14:20:43.063Z,4.50
2023-05-23T14:23:12.401Z,5.17
2023-05-23T14:25:40.850Z,4.00
2023-05-23T14:28:09.086Z,4.47
2023-05-23T14:30:37.136Z,5.00
2023-05-23T14:33:05.428Z,4.17
2023-05-23T14:35:33.606Z,5.23
2023-05-23T14:38:01.608Z,6.40
2023-05-23T14:40:30.996Z,4.73
2023-05-23T14:42:59.029Z,6.50
2023-05-23T14:45:27.339Z,5.47
2023-05-23T14:47:55.717Z,6.03
2023-05-23T14:50:23.859Z,6.40
2023-05-23T14:52:51.949Z,6.63
2023-05-23T14:55:20.038Z,5.90
2023-05-23T14:57:49.531Z,6.97
2023-05-23T15:00:19.414Z,5.67
2023-05-23T15:02:47.572Z,6.00
2023-05-23T15:05:15.843Z,6.27
2023-05-23T15:07:44.288Z,6.30
2023-05-23T15:10:12.550Z,5.83
2023-05-23T15:12:40.664Z,8.10
2023-05-23T15:15:11.363Z,6.90
2023-05-23T15:17:39.553Z,6.40
2023-05-23T15:20:10.120Z,7.40
2023-05-23T15:22:39.814Z,7.10
2023-05-23T15:25:09.770Z,6.87
2023-05-23T15:27:38.285Z,7.63
2023-05-23T15:30:10.195Z,6.53
2023-05-23T15:32:38.558Z,7.27
2023-05-23T15:35:07.906Z,6.33
2023-05-23T15:37:35.987Z,6.23
2023-05-23T15:40:04.443Z,7.33
2023-05-23T15:42:32.838Z,6.40
2023-05-23T15:45:00.865Z,6.20
2023-05-23T15:47:30.385Z,6.77
2023-05-23T15:49:58.500Z,6.70
2023-05-23T15:52:26.621Z,6.87
2023-05-23T15:54:55.010Z,6.50
2023-05-23T15:57:23.002Z,6.53
2023-05-23T15:59:51.059Z,6.53
2023-05-23T16:02:20.242Z,5.87
2023-05-23T16:04:49.810Z,7.27
2023-05-23T16:07:18.512Z,5.80
2023-05-23T16:09:46.743Z,6.30
2023-05-23T16:12:14.878Z,5.90
2023-05-23T16:14:42.950Z,5.33
2023-05-23T16:17:10.996Z,6.00
2023-05-23T16:19:39.133Z,6.00
2023-05-23T16:22:08.733Z,5.90
2023-05-23T16:24:36.739Z,6.80
2023-05-23T16:27:05.256Z,5.70
2023-05-23T16:29:33.349Z,5.83
2023-05-23T16:32:01.429Z,6.60
2023-05-23T16:34:29.513Z,5.53
2023-05-23T16:36:57.481Z,6.40
2023-05-23T16:39:26.864Z,6.07
2023-05-23T16:41:54.927Z,5.60
2023-05-23T16:44:22.950Z,6.30
2023-05-23T16:46:51.443Z,6.20
2023-05-23T16:49:19.586Z,5.87
2023-05-23T16:51:48.803Z,6.47
2023-05-23T16:54:17.114Z,7.13
2023-05-23T16:56:46.510Z,6.77
2023-05-23T16:59:14.565Z,6.57
2023-05-23T17:01:42.675Z,6.43
2023-05-23T17:04:10.954Z,7.33
2023-05-23T17:06:39.021Z,6.47
2023-05-23T17:09:07.037Z,6.50
2023-05-23T17:11:35.131Z,5.97
2023-05-23T17:14:04.626Z,6.00
2023-05-23T17:16:33.554Z,5.53
2023-05-23T17:19:01.981Z,5.97
2023-05-23T17:21:30.103Z,6.20
2023-05-23T17:23:58.289Z,5.90
2023-05-23T17:26:27.895Z,6.07
2023-05-23T17:28:56.044Z,6.40
2023-05-23T17:31:25.478Z,5.93
2023-05-23T17:33:53.570Z,6.30
2023-05-23T17:36:21.790Z,5.67
2023-05-23T17:38:49.815Z,5.20
2023-05-23T17:41:17.812Z,5.70
2023-05-23T17:43:46.877Z,5.70
2023-05-23T17:46:14.998Z,5.20
2023-05-23T17:48:47.014Z,6.13
2023-05-23T17:51:16.666Z,5.53
2023-05-23T17:53:45.082Z,6.30
2023-05-23T17:56:13.225Z,6.37
2023-05-23T17:58:43.392Z,5.80
2023-05-23T18:01:13.434Z,7.20
2023-05-23T18:03:41.684Z,7.03
2023-05-23T18:06:11.085Z,6.23
2023-05-23T18:08:39.392Z,7.03
2023-05-23T18:11:07.443Z,6.33
2023-05-23T18:13:35.503Z,6.30
2023-05-23T18:16:03.587Z,5.50
2023-05-23T18:18:32.246Z,5.83
2023-05-23T18:21:00.673Z,5.60
2023-05-23T18:23:30.021Z,5.03
2023-05-23T18:25:58.352Z,5.70
2023-05-23T18:28:26.451Z,5.60
2023-05-23T18:30:54.460Z,6.37
2023-05-23T18:33:22.754Z,5.50
2023-05-23T18:35:51.639Z,5.40
2023-05-23T18:38:19.712Z,4.97
2023-05-23T18:40:49.202Z,4.40
2023-05-23T18:43:17.484Z,4.60
2023-05-23T18:45:45.998Z,5.00
2023-05-23T18:48:14.641Z,5.03
2023-05-23T18:50:42.840Z,5.30
2023-05-23T18:53:11.251Z,4.03
2023-05-23T18:55:39.284Z,5.00
2023-05-23T18:58:08.712Z,4.00
2023-05-23T19:00:36.784Z,4.17
2023-05-23T19:03:05.327Z,4.40
2023-05-23T19:05:33.488Z,5.13
2023-05-23T19:08:01.739Z,4.73
2023-05-23T19:10:29.779Z,4.50
2023-05-23T19:12:57.818Z,3.80
2023-05-23T19:15:27.249Z,4.23
2023-05-23T19:17:55.343Z,4.67
2023-05-23T19:20:23.480Z,4.70
2023-05-23T19:22:52.728Z,4.57
2023-05-23T19:25:21.522Z,4.20
2023-05-23T19:27:49.625Z,4.13
2023-05-23T19:30:17.792Z,3.93
2023-05-23T19:32:47.339Z,3.83
2023-05-23T19:35:17.038Z,4.20
2023-05-23T19:37:45.785Z,4.00
2023-05-23T19:40:14.550Z,4.17
2023-05-23T19:42:42.627Z,3.93
2023-05-23T19:45:12.166Z,3.23
2023-05-23T19:47:40.662Z,3.60
2023-05-23T19:50:12.931Z,4.07
2023-05-23T19:52:41.930Z,4.90
2023-05-23T19:55:11.059Z,3.70
2023-05-23T19:57:39.078Z,3.90
2023-05-23T20:00:09.682Z,4.50
2023-05-23T20:02:38.448Z,4.60
2023-05-23T20:05:08.234Z,4.43
2023-05-23T20:07:37.735Z,4.17
2023-05-23T20:10:07.318Z,5.03
2023-05-23T20:12:35.707Z,4.10
2023-05-23T20:15:05.242Z,4.17
2023-05-23T20:17:33.480Z,4.07
2023-05-23T20:20:02.299Z,4.10
2023-05-23T20:22:30.372Z,3.83
2023-05-23T20:24:59.730Z,4.40
2023-05-23T20:27:28.134Z,4.57
2023-05-23T20:29:56.278Z,4.47
2023-05-23T20:32:24.386Z,5.50
2023-05-23T20:34:52.717Z,3.93
2023-05-23T20:37:20.956Z,3.60
2023-05-23T20:39:49.278Z,3.97
2023-05-23T20:42:19.033Z,3.70
2023-05-23T20:44:47.795Z,3.70
2023-05-23T20:47:17.633Z,3.93
2023-05-23T20:49:47.632Z,3.90
2023-05-23T20:52:15.679Z,4.57
2023-05-23T20:54:43.734Z,3.60
2023-05-23T20:57:11.759Z,4.10
2023-05-23T20:59:41.117Z,3.63
2023-05-23T21:02:09.881Z,4.00
2023-05-23T21:04:37.947Z,3.70
2023-05-23T21:07:06.198Z,3.30
2023-05-23T21:09:34.253Z,3.90
2023-05-23T21:12:02.420Z,3.33
2023-05-23T21:14:30.477Z,4.00
2023-05-23T21:16:59.917Z,4.47
2023-05-23T21:19:28.334Z,3.17
2023-05-23T21:21:56.411Z,3.30
2023-05-23T21:24:25.356Z,4.03
2023-05-23T21:26:53.529Z,3.40
2023-05-23T21:29:21.590Z,3.70
2023-05-23T21:31:49.790Z,3.90
2023-05-23T21:34:23.954Z,3.30
2023-05-23T21:36:52.930Z,3.30
2023-05-23T21:39:21.458Z,3.47
2023-05-23T21:41:49.525Z,3.13
2023-05-23T21:44:18.775Z,3.20
2023-05-23T21:46:47.217Z,2.93
2023-05-23T21:49:15.559Z,3.00
2023-05-23T21:51:44.972Z,4.33
2023-05-23T21:54:12.959Z,2.90
2023-05-23T21:56:41.039Z,3.23
2023-05-23T21:59:09.611Z,3.33
2023-05-23T22:01:37.700Z,3.50
2023-05-23T22:04:05.931Z,3.10
2023-05-23T22:06:34.167Z,3.00
2023-05-23T22:09:03.688Z,3.73
2023-05-23T22:11:34.102Z,4.07
2023-05-23T22:14:02.852Z,2.80
2023-05-23T22:16:32.778Z,3.17
2023-05-23T22:19:01.987Z,3.17
2023-05-23T22:21:30.228Z,3.20
2023-05-23T22:23:58.591Z,3.57
2023-05-23T22:26:28.013Z,2.57
2023-05-23T22:28:56.640Z,3.17
2023-05-23T22:31:24.837Z,3.40
2023-05-23T22:33:53.318Z,2.60
2023-05-23T22:36:22.236Z,3.00
2023-05-23T22:38:50.463Z,3.73
2023-05-23T22:41:18.825Z,3.00
2023-05-23T22:43:48.221Z,2.73
2023-05-23T22:46:16.236Z,3.47
2023-05-23T22:48:44.817Z,3.57
2023-05-23T22:51:14.563Z,3.30
2023-05-23T22:53:43.259Z,3.10
2023-05-23T22:56:11.350Z,3.00
2023-05-23T22:58:39.437Z,3.00
2023-05-23T23:01:08.877Z,3.23
2023-05-23T23:03:37.059Z,2.73
2023-05-23T23:06:07.478Z,3.13
2023-05-23T23:08:35.683Z,2.50
2023-05-23T23:11:07.039Z,2.70
2023-05-23T23:13:35.073Z,2.20
2023-05-23T23:16:03.058Z,3.60
2023-05-23T23:18:32.398Z,2.87
2023-05-23T23:21:00.463Z,2.80
2023-05-23T23:23:28.486Z,3.43
2023-05-23T23:25:56.556Z,2.67
2023-05-23T23:28:24.558Z,2.33
2023-05-23T23:30:52.517Z,2.83
2023-05-23T23:33:20.506Z,2.67
2023-05-23T23:35:51.675Z,2.93
2023-05-23T23:38:19.719Z,3.83
2023-05-23T23:40:47.769Z,2.90
2023-05-23T23:43:15.932Z,2.83
2023-05-23T23:45:43.993Z,3.30
2023-05-23T23:48:13.752Z,2.63
2023-05-23T23:50:42.106Z,2.30
2023-05-23T23:53:12.467Z,3.10
2023-05-23T23:55:40.571Z,3.10
2023-05-23T23:58:08.608Z,2.57
